createdAt,value
2023-04-03T00:00:42.338Z,10.13
2023-04-03T00:03:44.773Z,10.22
2023-04-03T00:06:47.196Z,10.32
2023-04-03T00:09:49.487Z,10.41
2023-04-03T00:12:51.834Z,10.35
2023-04-03T00:15:54.421Z,10.30
2023-04-03T00:18:56.815Z,10.21
2023-04-03T00:21:59.124Z,10.23
2023-04-03T00:25:01.548Z,10.14
2023-04-03T00:28:04.624Z,10.10
2023-04-03T00:31:07.001Z,10.22
2023-04-03T00:34:09.355Z,10.13
2023-04-03T00:37:11.884Z,10.09
2023-04-03T00:40:15.654Z,10.14
2023-04-03T00:43:23.663Z,10.06
2023-04-03T00:46:26.315Z,10.08
2023-04-03T00:49:29.412Z,10.12
2023-04-03T00:52:32.471Z,10.02
2023-04-03T00:55:36.835Z,10.03
2023-04-03T00:58:44.379Z,9.94
2023-04-03T01:01:46.856Z,9.96
2023-04-03T01:04:49.248Z,9.83
2023-04-03T01:07:52.591Z,9.98
2023-04-03T01:10:54.891Z,9.70
2023-04-03T01:13:58.416Z,9.96
2023-04-03T01:17:01.770Z,10.01
2023-04-03T01:20:32.124Z,9.79
2023-04-03T01:24:05.727Z,9.86
2023-04-03T01:27:10.156Z,10.11
2023-04-03T01:30:14.362Z,10.14
2023-04-03T01:33:16.780Z,10.04
2023-04-03T01:36:23.040Z,10.01
2023-04-03T01:39:25.618Z,9.78
2023-04-03T01:42:28.119Z,9.83
2023-04-03T01:45:30.565Z,9.90
2023-04-03T01:48:33.057Z,9.84
2023-04-03T01:51:36.012Z,9.76
2023-04-03T01:54:38.605Z,9.88
2023-04-03T01:57:40.881Z,9.67
2023-04-03T02:00:43.903Z,9.68
2023-04-03T02:03:46.582Z,9.92
2023-04-03T02:06:49.073Z,9.79
2023-04-03T02:09:51.480Z,9.84
2023-04-03T02:12:54.423Z,9.60
2023-04-03T02:15:56.893Z,9.57
2023-04-03T02:18:59.407Z,9.38
2023-04-03T02:22:02.218Z,9.51
2023-04-03T02:25:06.146Z,9.77
2023-04-03T02:28:08.465Z,9.58
2023-04-03T02:31:11.714Z,9.63
2023-04-03T02:34:16.459Z,9.60
2023-04-03T02:37:18.948Z,9.73
2023-04-03T02:40:22.815Z,9.67
2023-04-03T02:43:26.519Z,9.72
2023-04-03T02:46:29.770Z,9.73
2023-04-03T02:49:32.950Z,9.69
2023-04-03T02:52:35.298Z,9.65
2023-04-03T02:55:37.676Z,9.74
2023-04-03T02:58:40.052Z,9.87
2023-04-03T03:01:44.180Z,9.62
2023-04-03T03:04:46.576Z,9.58
2023-04-03T03:07:48.931Z,9.59
2023-04-03T03:10:52.270Z,9.55
2023-04-03T03:13:54.613Z,9.42
2023-04-03T03:16:56.935Z,9.56
2023-04-03T03:19:59.240Z,9.47
2023-04-03T03:23:02.946Z,9.25
2023-04-03T03:26:08.657Z,9.16
2023-04-03T03:29:11.055Z,9.41
2023-04-03T03:32:13.751Z,9.63
2023-04-03T03:35:16.057Z,10.05
2023-04-03T03:38:18.382Z,9.90
2023-04-03T03:41:20.720Z,9.58
2023-04-03T03:44:23.379Z,9.78
2023-04-03T03:47:26.498Z,9.54
2023-04-03T03:50:29.306Z,9.66
2023-04-03T03:53:31.835Z,9.36
2023-04-03T03:56:39.364Z,9.42
2023-04-03T03:59:42.866Z,9.40
2023-04-03T04:02:45.792Z,9.26
2023-04-03T04:05:52.263Z,9.00
2023-04-03T04:08:55.054Z,9.31
2023-04-03T04:11:57.464Z,9.37
2023-04-03T04:14:59.856Z,9.24
2023-04-03T04:18:04.681Z,9.24
2023-04-03T04:21:07.955Z,9.26
2023-04-03T04:24:10.677Z,9.27
2023-04-03T04:27:14.139Z,9.22
2023-04-03T04:30:16.884Z,9.05
2023-04-03T04:33:21.711Z,9.25
2023-04-03T04:36:24.075Z,9.31
2023-04-03T04:39:27.707Z,9.27
2023-04-03T04:42:32.890Z,8.99
2023-04-03T04:45:35.974Z,9.35
2023-04-03T04:48:38.921Z,9.30
2023-04-03T04:51:51.584Z,9.47
2023-04-03T04:54:58.885Z,9.74
2023-04-03T04:58:01.570Z,9.77
2023-04-03T05:01:09.672Z,9.62
2023-04-03T05:04:18.160Z,9.44
2023-04-03T05:07:24.158Z,9.67
2023-04-03T05:10:26.829Z,9.61
2023-04-03T05:13:29.673Z,9.53
2023-04-03T05:16:33.352Z,9.57
2023-04-03T05:19:35.979Z,9.44
2023-04-03T05:22:40.403Z,9.48
2023-04-03T05:25:47.940Z,9.52
2023-04-03T05:28:50.696Z,9.56
2023-04-03T05:32:13.349Z,9.72
2023-04-03T05:35:16.506Z,9.55
2023-04-03T05:38:21.419Z,9.46
2023-04-03T05:41:26.198Z,9.35
2023-04-03T05:44:28.669Z,9.58
2023-04-03T05:47:32.172Z,9.55
2023-04-03T05:50:35.063Z,9.57
2023-04-03T05:53:38.402Z,9.49
2023-04-03T05:56:42.840Z,9.32
2023-04-03T05:59:46.492Z,9.59
2023-04-03T06:02:49.635Z,9.59
2023-04-03T06:05:57.102Z,9.88
2023-04-03T06:09:02.051Z,10.01
2023-04-03T06:12:06.734Z,10.18
2023-04-03T06:15:11.072Z,10.69
2023-04-03T06:18:13.913Z,11.17
2023-04-03T06:21:16.603Z,11.14
2023-04-03T06:24:19.355Z,11.30
2023-04-03T06:27:21.953Z,11.70
2023-04-03T06:30:24.322Z,11.60
2023-04-03T06:33:27.355Z,11.72
2023-04-03T06:36:29.984Z,11.69
2023-04-03T06:39:32.269Z,11.66
2023-04-03T06:42:41.389Z,11.53
2023-04-03T06:45:47.770Z,11.47
2023-04-03T06:49:33.774Z,11.21
2023-04-03T06:52:39.392Z,11.52
2023-04-03T06:55:42.378Z,11.74
2023-04-03T06:58:46.102Z,11.91
2023-04-03T07:01:48.674Z,11.83
2023-04-03T07:04:51.674Z,11.92
2023-04-03T07:07:55.335Z,12.19
2023-04-03T07:10:57.811Z,12.10
2023-04-03T07:14:00.632Z,12.33
2023-04-03T07:17:02.960Z,12.43
2023-04-03T07:20:06.176Z,12.52
2023-04-03T07:23:08.558Z,12.44
2023-04-03T07:26:10.885Z,12.73
2023-04-03T07:29:13.389Z,12.81
2023-04-03T07:32:16.411Z,12.87
2023-04-03T07:35:18.907Z,13.04
2023-04-03T07:38:26.919Z,12.92
2023-04-03T07:41:57.429Z,13.04
2023-04-03T07:44:59.754Z,13.10
2023-04-03T07:48:20.672Z,12.99
2023-04-03T07:51:23.067Z,13.19
2023-04-03T07:54:25.599Z,13.00
2023-04-03T07:58:10.589Z,13.12
2023-04-03T08:01:13.396Z,13.34
2023-04-03T08:04:15.806Z,13.41
2023-04-03T08:07:18.215Z,13.65
2023-04-03T08:10:20.622Z,13.71
2023-04-03T08:13:23.397Z,13.84
2023-04-03T08:16:29.143Z,13.80
2023-04-03T08:19:32.103Z,13.82
2023-04-03T08:22:35.027Z,13.80
2023-04-03T08:25:43.662Z,13.90
2023-04-03T08:28:45.959Z,13.85
2023-04-03T08:31:48.529Z,13.99
2023-04-03T08:34:50.975Z,13.99
2023-04-03T08:37:53.276Z,14.04
2023-04-03T08:41:17.243Z,13.94
2023-04-03T08:44:47.359Z,14.06
2023-04-03T08:48:07.148Z,14.08
2023-04-03T08:51:19.623Z,13.81
2023-04-03T08:54:30.701Z,13.52
2023-04-03T08:57:40.890Z,13.44
2023-04-03T09:00:49.481Z,13.50
2023-04-03T09:03:52.065Z,13.47
2023-04-03T09:07:00.133Z,13.69
2023-04-03T09:10:04.208Z,14.22
2023-04-03T09:13:14.899Z,14.69
2023-04-03T09:16:42.522Z,15.29
2023-04-03T09:19:52.245Z,13.80
2023-04-03T09:22:55.302Z,14.62
2023-04-03T09:26:11.660Z,14.60
2023-04-03T09:29:23.459Z,14.40
2023-04-03T09:32:31.985Z,13.98
2023-04-03T09:35:47.312Z,13.95
2023-04-03T09:39:07.538Z,13.82
2023-04-03T09:42:37.444Z,13.86
2023-04-03T09:45:39.989Z,13.47
2023-04-03T09:49:07.256Z,13.60
2023-04-03T09:52:22.049Z,13.39
2023-04-03T09:55:30.465Z,13.55
2023-04-03T09:58:46.797Z,13.74
2023-04-03T10:02:32.285Z,13.94
2023-04-03T10:05:40.187Z,13.59
2023-04-03T10:08:42.633Z,13.78
2023-04-03T10:12:05.825Z,13.73
2023-04-03T10:15:16.916Z,14.75
2023-04-03T10:18:24.691Z,15.23
2023-04-03T10:21:47.431Z,14.69
2023-04-03T10:25:16.374Z,14.43
2023-04-03T10:28:24.668Z,13.61
2023-04-03T10:32:10.204Z,13.48
2023-04-03T10:35:37.498Z,13.34
2023-04-03T10:38:54.894Z,13.37
2023-04-03T10:42:20.972Z,13.60
2023-04-03T10:45:55.840Z,13.60
2023-04-03T10:49:31.924Z,13.49
2023-04-03T10:52:43.880Z,13.56
2023-04-03T10:56:04.597Z,13.60
2023-04-03T10:59:47.146Z,13.56
2023-04-03T11:02:56.632Z,13.65
2023-04-03T11:06:01.768Z,13.73
2023-04-03T11:09:26.861Z,13.84
2023-04-03T11:12:36.757Z,13.37
2023-04-03T11:15:39.299Z,13.52
2023-04-03T11:19:03.781Z,13.55
2023-04-03T11:22:15.150Z,13.24
2023-04-03T11:25:27.375Z,13.01
2023-04-03T11:28:29.746Z,13.09
2023-04-03T11:31:50.355Z,13.28
2023-04-03T11:34:57.757Z,13.40
2023-04-03T11:38:01.163Z,13.44
2023-04-03T11:41:06.227Z,13.51
2023-04-03T11:44:38.662Z,13.53
2023-04-03T11:47:50.959Z,13.71
2023-04-03T11:50:53.482Z,13.93
2023-04-03T11:53:55.778Z,13.95
2023-04-03T11:57:57.024Z,13.83
2023-04-03T12:01:50.263Z,13.39
2023-04-03T12:05:25.487Z,13.78
2023-04-03T12:08:39.613Z,13.66
2023-04-03T12:11:47.751Z,13.36
2023-04-03T12:14:50.928Z,13.20
2023-04-03T12:17:53.791Z,13.45
2023-04-03T12:20:57.772Z,13.52
2023-04-03T12:24:00.323Z,13.52
2023-04-03T12:27:30.105Z,13.67
2023-04-03T12:30:32.839Z,13.42
2023-04-03T12:33:52.568Z,13.64
2023-04-03T12:42:22.128Z,13.72
2023-04-03T12:45:25.604Z,13.73
2023-04-03T12:48:30.670Z,13.87
2023-04-03T12:51:38.676Z,13.86
2023-04-03T12:54:41.641Z,13.85
2023-04-03T12:57:44.477Z,13.71
2023-04-03T13:00:46.843Z,13.45
2023-04-03T13:03:51.677Z,13.59
2023-04-03T13:06:54.641Z,13.49
2023-04-03T13:10:02.035Z,13.66
2023-04-03T13:13:09.994Z,13.85
2023-04-03T13:16:12.708Z,14.08
2023-04-03T13:19:18.742Z,14.25
2023-04-03T13:22:31.825Z,14.13
2023-04-03T13:25:36.662Z,14.11
2023-04-03T13:28:41.731Z,14.01
2023-04-03T13:31:44.141Z,13.93
2023-04-03T13:34:47.634Z,13.64
2023-04-03T13:37:58.178Z,13.85
2023-04-03T13:41:50.077Z,13.79
2023-04-03T13:45:28.879Z,13.99
2023-04-03T13:48:37.817Z,13.96
2023-04-03T13:51:40.445Z,14.06
2023-04-03T13:54:42.936Z,14.29
2023-04-03T13:58:08.725Z,14.44
2023-04-03T14:01:23.068Z,14.45
2023-04-03T14:04:28.970Z,14.73
2023-04-03T14:07:34.764Z,14.89
2023-04-03T14:10:40.496Z,15.08
2023-04-03T14:13:44.031Z,15.07
2023-04-03T14:16:50.007Z,15.00
2023-04-03T14:19:53.806Z,14.43
2023-04-03T14:22:56.210Z,14.42
2023-04-03T14:25:59.397Z,14.59
2023-04-03T14:29:02.240Z,14.58
2023-04-03T14:32:14.314Z,14.63
2023-04-03T14:35:18.185Z,14.86
2023-04-03T14:38:31.749Z,14.93
2023-04-03T14:41:34.521Z,14.72
2023-04-03T14:44:36.966Z,14.51
2023-04-03T14:48:08.352Z,14.41
2023-04-03T14:51:17.922Z,14.73
2023-04-03T14:54:26.695Z,14.54
2023-04-03T14:57:30.395Z,14.12
2023-04-03T15:00:34.071Z,14.02
2023-04-03T15:03:36.665Z,13.66
2023-04-03T15:06:39.215Z,13.78
2023-04-03T15:09:41.576Z,13.90
2023-04-03T15:12:46.012Z,13.74
2023-04-03T15:15:48.611Z,13.82
2023-04-03T15:18:51.187Z,13.99
2023-04-03T15:21:53.517Z,14.06
2023-04-03T15:24:56.106Z,14.24
2023-04-03T15:27:58.880Z,14.04
2023-04-03T15:31:01.247Z,14.11
2023-04-03T15:34:04.165Z,13.96
2023-04-03T15:37:06.580Z,13.69
2023-04-03T15:40:09.917Z,13.51
2023-04-03T15:43:12.388Z,13.27
2023-04-03T15:46:14.733Z,13.12
2023-04-03T15:49:17.291Z,13.10
2023-04-03T15:52:19.696Z,12.97
2023-04-03T15:55:26.792Z,12.89
2023-04-03T15:58:29.182Z,12.63
2023-04-03T16:01:32.431Z,12.49
2023-04-03T16:04:35.421Z,12.45
2023-04-03T16:07:39.534Z,12.20
2023-04-03T16:10:42.141Z,11.84
2023-04-03T16:13:44.450Z,11.75
2023-04-03T16:16:46.971Z,11.70
2023-04-03T16:19:49.336Z,11.06
2023-04-03T16:22:51.716Z,10.84
2023-04-03T16:25:54.006Z,10.69
2023-04-03T16:28:56.522Z,10.48
2023-04-03T16:31:59.561Z,10.20
2023-04-03T16:38:09.187Z,10.08
2023-04-03T16:41:11.495Z,10.01
2023-04-03T16:44:14.730Z,10.01
2023-04-03T16:47:20.133Z,10.09
2023-04-03T16:50:22.504Z,10.31
2023-04-03T16:53:25.805Z,10.43
2023-04-03T16:56:28.519Z,10.46
2023-04-03T16:59:30.881Z,10.29
2023-04-03T17:02:33.306Z,9.96
2023-04-03T17:05:36.062Z,9.99
2023-04-03T17:08:38.391Z,9.98
2023-04-03T17:11:40.868Z,10.14
2023-04-03T17:14:43.332Z,10.22
2023-04-03T17:17:45.654Z,10.17
2023-04-03T17:20:47.993Z,10.27
2023-04-03T17:23:53.717Z,10.33
2023-04-03T17:26:56.043Z,10.28
2023-04-03T17:29:58.428Z,10.34
2023-04-03T17:33:00.737Z,10.31
2023-04-03T17:36:04.601Z,10.48
2023-04-03T17:39:07.468Z,10.45
2023-04-03T17:42:09.862Z,10.40
2023-04-03T17:45:12.315Z,10.38
2023-04-03T17:48:14.643Z,10.24
2023-04-03T17:51:21.015Z,10.27
2023-04-03T17:54:23.342Z,10.30
2023-04-03T17:57:25.721Z,10.34
2023-04-03T18:00:28.003Z,10.28
2023-04-03T18:03:30.303Z,10.45
2023-04-03T18:06:38.608Z,10.39
2023-04-03T18:09:41.384Z,10.29
2023-04-03T18:12:43.836Z,10.33
2023-04-03T18:15:46.344Z,10.36
2023-04-03T18:18:50.698Z,10.39
2023-04-03T18:21:58.417Z,10.40
2023-04-03T18:25:00.744Z,10.42
2023-04-03T18:28:06.496Z,10.30
2023-04-03T18:31:15.317Z,10.16
2023-04-03T18:34:17.700Z,9.94
2023-04-03T18:37:21.833Z,9.98
2023-04-03T18:40:24.313Z,9.89
2023-04-03T18:43:29.318Z,9.78
2023-04-03T18:46:32.849Z,9.40
2023-04-03T18:49:36.829Z,9.40
2023-04-03T18:52:39.091Z,9.40
2023-04-03T18:55:41.663Z,9.54
2023-04-03T18:58:44.135Z,9.53
2023-04-03T19:01:46.451Z,9.48
2023-04-03T19:04:48.935Z,9.41
2023-04-03T19:07:51.361Z,9.43
2023-04-03T19:10:53.686Z,9.30
2023-04-03T19:14:10.095Z,9.35
2023-04-03T19:17:16.503Z,9.43
2023-04-03T19:20:18.958Z,9.34
2023-04-03T19:23:21.340Z,9.32
2023-04-03T19:26:23.697Z,9.43
2023-04-03T19:29:26.055Z,9.39
2023-04-03T19:32:28.442Z,9.56
2023-04-03T19:35:30.838Z,9.58
2023-04-03T19:38:33.208Z,9.50
2023-04-03T19:41:36.820Z,9.56
2023-04-03T19:44:39.359Z,9.47
2023-04-03T19:47:41.791Z,9.72
2023-04-03T19:50:44.142Z,9.57
2023-04-03T19:53:47.575Z,9.32
2023-04-03T19:56:50.463Z,9.37
2023-04-03T19:59:52.978Z,9.18
2023-04-03T20:02:55.899Z,9.21
2023-04-03T20:05:58.264Z,9.34
2023-04-03T20:09:01.395Z,9.37
2023-04-03T20:12:03.715Z,9.20
2023-04-03T20:15:08.639Z,9.25
2023-04-03T20:18:17.955Z,9.01
2023-04-03T20:21:20.858Z,9.17
2023-04-03T20:24:24.225Z,9.14
2023-04-03T20:27:26.907Z,8.91
2023-04-03T20:30:29.275Z,9.01
2023-04-03T20:33:31.507Z,9.14
2023-04-03T20:36:34.766Z,9.00
2023-04-03T20:39:37.497Z,8.91
2023-04-03T20:42:40.650Z,8.79
2023-04-03T20:45:43.142Z,8.75
2023-04-03T20:48:47.760Z,8.74
2023-04-03T20:51:51.351Z,8.92
2023-04-03T20:54:53.716Z,8.71
2023-04-03T20:58:00.949Z,8.93
2023-04-03T21:01:03.468Z,8.46
2023-04-03T21:04:30.592Z,8.56
2023-04-03T21:08:10.928Z,8.64
2023-04-03T21:11:51.096Z,8.28
2023-04-03T21:15:31.648Z,8.58
2023-04-03T21:18:42.252Z,8.51
2023-04-03T21:21:46.003Z,8.64
2023-04-03T21:24:48.559Z,8.51
2023-04-03T21:27:52.134Z,8.49
2023-04-03T21:30:54.575Z,8.44
2023-04-03T21:33:57.291Z,8.49
2023-04-03T21:37:04.917Z,8.48
2023-04-03T21:40:08.613Z,8.25
2023-04-03T21:43:10.902Z,8.25
2023-04-03T21:46:13.812Z,8.45
2023-04-03T21:49:16.692Z,8.63
2023-04-03T21:52:19.052Z,8.35
2023-04-03T21:55:21.265Z,8.46
2023-04-03T21:58:31.294Z,8.17
2023-04-03T22:01:33.655Z,8.38
2023-04-03T22:04:35.961Z,8.39
2023-04-03T22:07:38.349Z,8.19
2023-04-03T22:10:41.574Z,8.08
2023-04-03T22:13:44.726Z,8.41
2023-04-03T22:16:47.057Z,8.34
2023-04-03T22:19:49.325Z,8.41
2023-04-03T22:22:51.813Z,8.55
2023-04-03T22:26:10.142Z,8.36
2023-04-03T22:29:16.743Z,8.54
2023-04-03T22:32:19.050Z,8.51
2023-04-03T22:35:21.726Z,8.45
2023-04-03T22:38:24.117Z,8.38
2023-04-03T22:41:26.992Z,8.38
2023-04-03T22:44:34.973Z,8.19
2023-04-03T22:47:38.842Z,7.93
2023-04-03T22:50:41.591Z,7.88
2023-04-03T22:53:44.070Z,7.96
2023-04-03T22:56:46.528Z,7.83
2023-04-03T22:59:48.823Z,7.63
2023-04-03T23:02:51.441Z,7.55
2023-04-03T23:05:53.772Z,7.77
2023-04-03T23:08:56.239Z,7.84
2023-04-03T23:11:58.656Z,7.58
2023-04-03T23:15:00.985Z,7.58
2023-04-03T23:18:03.309Z,7.51
2023-04-03T23:21:07.931Z,7.26
2023-04-03T23:24:10.328Z,7.30
2023-04-03T23:27:12.584Z,6.95
2023-04-03T23:30:14.845Z,7.04
2023-04-03T23:33:17.288Z,7.03
2023-04-03T23:36:21.218Z,7.04
2023-04-03T23:39:23.618Z,7.04
2023-04-03T23:42:25.920Z,6.90
2023-04-03T23:45:28.298Z,6.75
2023-04-03T23:48:30.617Z,6.74
2023-04-03T23:51:32.938Z,6.58
2023-04-03T23:54:35.505Z,6.37
2023-04-03T23:57:37.789Z,6.43
